Time;durP1;ratioP1;P1;durP2;ratioP2;P2;SDS_P1;SDS_P2;PMS_P1;PMS_P2;Temp;Humidity;BMP_temperature;BMP_pressure;BME280_temperature;BME280_humidity;BME280_pressure;Samples;Min_cycle;Max_cycle;Signal;HPM_P1;HPM_P2
2021/03/05 00:05:01;;;;;;;9.63;5.30;;;;;;;;;;10410102;28;20215;-76
2021/03/05 00:10:05;;;;;;;7.77;5.37;;;;;;;;;;10401813;28;20681;-76
2021/03/05 00:15:08;;;;;;;9.60;5.60;;;;;;;;;;10395758;28;20224;-78
2021/03/05 00:20:11;;;;;;;10.07;5.70;;;;;;;;;;10393459;28;20744;-77
2021/03/05 00:25:14;;;;;;;8.77;5.50;;;;;;;;;;10397095;28;20216;-76
2021/03/05 00:30:16;;;;;;;11.57;5.73;;;;;;;;;;10395223;28;20236;-76
2021/03/05 00:35:19;;;;;;;9.80;5.53;;;;;;;;;;10397238;28;20239;-76
2021/03/05 00:40:25;;;;;;;9.63;5.40;;;;;;;;;;10399413;28;20713;-77
2021/03/05 00:45:27;;;;;;;7.50;5.07;;;;;;;;;;10399097;28;20216;-77
2021/03/05 00:50:30;;;;;;;8.10;5.30;;;;;;;;;;10401067;28;20589;-77
2021/03/05 00:55:33;;;;;;;8.83;5.30;;;;;;;;;;10392090;28;20630;-77
2021/03/05 01:00:35;;;;;;;10.47;5.67;;;;;;;;;;10391470;28;20208;-77
2021/03/05 01:05:37;;;;;;;8.33;5.20;;;;;;;;;;10392592;28;20235;-78
2021/03/05 01:10:40;;;;;;;9.80;5.27;;;;;;;;;;10391600;28;20686;-76
2021/03/05 01:15:42;;;;;;;9.63;5.50;;;;;;;;;;10394224;28;20208;-76
2021/03/05 01:20:46;;;;;;;10.63;5.17;;;;;;;;;;10399176;28;20216;-76
2021/03/05 01:25:49;;;;;;;9.40;5.67;;;;;;;;;;10399195;28;20228;-76
2021/03/05 01:30:52;;;;;;;11.00;5.33;;;;;;;;;;10400647;28;20315;-78
2021/03/05 01:35:54;;;;;;;9.27;5.17;;;;;;;;;;10401460;28;20215;-76
2021/03/05 01:40:57;;;;;;;8.83;5.30;;;;;;;;;;10388643;28;20211;-76
2021/03/05 01:45:59;;;;;;;11.47;5.60;;;;;;;;;;10393648;28;20208;-76
2021/03/05 01:51:05;;;;;;;11.93;5.77;;;;;;;;;;10395003;28;20201;-77
2021/03/05 01:56:08;;;;;;;9.50;5.80;;;;;;;;;;10394480;28;20215;-77
2021/03/05 02:01:10;;;;;;;10.17;5.80;;;;;;;;;;10394995;28;20721;-76
2021/03/05 02:06:12;;;;;;;9.40;5.77;;;;;;;;;;10394264;28;20247;-76
2021/03/05 02:11:16;;;;;;;11.13;6.10;;;;;;;;;;10393495;28;20236;-76
2021/03/05 02:16:21;;;;;;;8.90;5.60;;;;;;;;;;10393409;28;20208;-77
2021/03/05 02:21:37;;;;;;;10.83;5.90;;;;;;;;;;10394014;28;20211;-77
2021/03/05 02:26:54;;;;;;;10.43;5.87;;;;;;;;;;10396476;28;20226;-76
2021/03/05 02:31:58;;;;;;;10.93;5.70;;;;;;;;;;10387861;28;20600;-76
2021/03/05 02:37:04;;;;;;;9.87;5.60;;;;;;;;;;10396029;28;20227;-75
2021/03/05 02:42:08;;;;;;;11.43;5.80;;;;;;;;;;10395030;28;20879;-76
2021/03/05 02:47:12;;;;;;;11.47;5.67;;;;;;;;;;10393251;28;20223;-76
2021/03/05 02:52:16;;;;;;;10.70;5.43;;;;;;;;;;10393156;28;20350;-76
2021/03/05 02:57:19;;;;;;;17.67;5.73;;;;;;;;;;10393360;28;20306;-76
2021/03/05 03:02:23;;;;;;;9.60;5.27;;;;;;;;;;10389065;28;20212;-77
2021/03/05 03:07:26;;;;;;;9.77;5.27;;;;;;;;;;10388099;28;20212;-76
2021/03/05 03:12:28;;;;;;;10.87;5.20;;;;;;;;;;10392374;28;20239;-77
2021/03/05 03:17:31;;;;;;;10.33;4.83;;;;;;;;;;10393089;28;20213;-77
2021/03/05 03:22:33;;;;;;;11.67;4.83;;;;;;;;;;10388473;28;20215;-76
2021/03/05 03:27:35;;;;;;;10.50;4.80;;;;;;;;;;10392859;28;20230;-77
2021/03/05 03:32:39;;;;;;;12.17;4.63;;;;;;;;;;10396260;28;20739;-77
2021/03/05 03:37:42;;;;;;;11.60;4.40;;;;;;;;;;10386166;28;20216;-77
2021/03/05 03:42:44;;;;;;;14.17;4.50;;;;;;;;;;10401197;28;20212;-77
2021/03/05 03:47:48;;;;;;;10.90;4.17;;;;;;;;;;10399637;28;20223;-77
2021/03/05 03:52:51;;;;;;;15.47;4.10;;;;;;;;;;10396995;28;20236;-73
2021/03/05 03:57:54;;;;;;;11.10;3.87;;;;;;;;;;10401118;28;20299;-76
2021/03/05 04:02:58;;;;;;;13.33;4.20;;;;;;;;;;10399606;28;20226;-76
2021/03/05 04:08:01;;;;;;;12.57;3.97;;;;;;;;;;10397408;28;20216;-76
2021/03/05 04:13:03;;;;;;;12.80;4.00;;;;;;;;;;10398430;28;20239;-76
2021/03/05 04:18:06;;;;;;;10.27;3.67;;;;;;;;;;10397235;28;20216;-76
2021/03/05 04:23:09;;;;;;;10.57;3.90;;;;;;;;;;10397569;28;20658;-77
2021/03/05 04:28:11;;;;;;;11.50;3.50;;;;;;;;;;10398999;28;20216;-76
2021/03/05 04:33:13;;;;;;;10.77;3.50;;;;;;;;;;10394595;28;20243;-77
2021/03/05 04:38:17;;;;;;;12.03;3.30;;;;;;;;;;10398927;28;20211;-76
2021/03/05 04:43:19;;;;;;;13.37;3.03;;;;;;;;;;10402934;28;20688;-77
2021/03/05 04:48:21;;;;;;;9.87;2.93;;;;;;;;;;10393757;28;20212;-76
2021/03/05 04:53:24;;;;;;;10.00;3.00;;;;;;;;;;10394614;28;20235;-76
2021/03/05 04:58:26;;;;;;;11.43;3.07;;;;;;;;;;10400875;28;20220;-76
2021/03/05 05:03:29;;;;;;;11.50;3.30;;;;;;;;;;10392291;28;20212;-76
2021/03/05 05:08:31;;;;;;;14.03;4.07;;;;;;;;;;10397412;28;20201;-76
2021/03/05 05:13:33;;;;;;;15.33;4.10;;;;;;;;;;10396310;28;20236;-77
2021/03/05 05:18:35;;;;;;;16.17;3.20;;;;;;;;;;10396775;28;20476;-76
2021/03/05 05:23:37;;;;;;;11.23;3.40;;;;;;;;;;10395603;28;20204;-77
2021/03/05 05:28:39;;;;;;;14.77;4.17;;;;;;;;;;10396088;28;20280;-76
2021/03/05 05:33:42;;;;;;;31.30;8.30;;;;;;;;;;10393991;28;20404;-76
2021/03/05 05:38:44;;;;;;;31.33;9.13;;;;;;;;;;10393038;28;20581;-76
2021/03/05 05:43:46;;;;;;;31.90;8.47;;;;;;;;;;10392384;28;20208;-76
2021/03/05 05:48:49;;;;;;;22.63;5.77;;;;;;;;;;10394624;28;20200;-76
2021/03/05 05:53:51;;;;;;;23.20;6.17;;;;;;;;;;10398148;28;20619;-76
2021/03/05 05:58:53;;;;;;;32.77;6.67;;;;;;;;;;10393938;28;20219;-77
2021/03/05 06:03:58;;;;;;;29.67;6.50;;;;;;;;;;10399349;28;20223;-76
2021/03/05 06:09:01;;;;;;;19.73;5.30;;;;;;;;;;10394985;28;20585;-76
2021/03/05 06:14:03;;;;;;;14.87;3.70;;;;;;;;;;10392294;28;20227;-76
2021/03/05 06:19:17;;;;;;;12.93;3.77;;;;;;;;;;10397416;28;20207;-76
2021/03/05 06:24:19;;;;;;;9.90;3.20;;;;;;;;;;10393677;28;20298;-76
2021/03/05 06:29:22;;;;;;;18.13;4.47;;;;;;;;;;10396147;28;20242;-76
2021/03/05 06:34:25;;;;;;;11.93;3.60;;;;;;;;;;10400832;28;20227;-76
2021/03/05 06:39:27;;;;;;;8.97;2.70;;;;;;;;;;10387675;28;20215;-76
2021/03/05 06:44:29;;;;;;;13.10;3.40;;;;;;;;;;10390934;28;20212;-76
2021/03/05 06:49:32;;;;;;;11.63;3.37;;;;;;;;;;10395290;28;20317;-76
2021/03/05 06:54:35;;;;;;;13.03;3.13;;;;;;;;;;10393337;28;20380;-77
2021/03/05 06:59:38;;;;;;;12.43;3.57;;;;;;;;;;10391076;28;20616;-77
2021/03/05 07:04:47;;;;;;;11.13;3.50;;;;;;;;;;10391896;28;20477;-77
2021/03/05 07:09:50;;;;;;;9.97;3.30;;;;;;;;;;10391645;28;20737;-76
2021/03/05 07:15:01;;;;;;;10.13;3.23;;;;;;;;;;10399447;28;20419;-76
2021/03/05 07:20:04;;;;;;;14.93;3.83;;;;;;;;;;10400242;28;20213;-74
2021/03/05 07:25:07;;;;;;;9.87;3.17;;;;;;;;;;10389520;28;20432;-76
2021/03/05 07:30:11;;;;;;;10.43;3.20;;;;;;;;;;10400883;28;20235;-76
2021/03/05 07:35:17;;;;;;;10.37;3.57;;;;;;;;;;10402377;28;20716;-76
2021/03/05 07:40:19;;;;;;;11.17;3.73;;;;;;;;;;10396283;28;20247;-76
2021/03/05 07:45:21;;;;;;;16.87;3.07;;;;;;;;;;10378386;22;20249;-75
2021/03/05 07:50:25;;;;;;;10.17;2.97;;;;;;;;;;10336508;28;20665;-75
2021/03/05 07:55:36;;;;;;;8.57;2.80;;;;;;;;;;10333129;28;20237;-75
2021/03/05 08:00:47;;;;;;;11.03;3.47;;;;;;;;;;10332092;28;20209;-76
2021/03/05 08:05:56;;;;;;;15.60;3.10;;;;;;;;;;10369986;28;20224;-76
2021/03/05 08:11:03;;;;;;;9.90;2.80;;;;;;;;;;10381504;28;20278;-76
2021/03/05 08:16:28;;;;;;;7.90;2.83;;;;;;;;;;10377405;28;20238;-76
2021/03/05 08:21:45;;;;;;;8.20;2.70;;;;;;;;;;10382549;28;20333;-75
2021/03/05 08:27:01;;;;;;;10.77;2.50;;;;;;;;;;10382727;28;20211;-75
2021/03/05 08:32:05;;;;;;;7.27;2.20;;;;;;;;;;10370095;28;20254;-75
2021/03/05 08:37:25;;;;;;;5.23;2.23;;;;;;;;;;10379272;28;20215;-76
2021/03/05 08:42:35;;;;;;;5.13;1.80;;;;;;;;;;10384719;28;20465;-75
2021/03/05 08:47:40;;;;;;;6.67;2.10;;;;;;;;;;10375505;28;21300;-74
2021/03/05 08:52:43;;;;;;;9.53;2.30;;;;;;;;;;10381832;28;20280;-73
2021/03/05 08:57:47;;;;;;;8.97;1.80;;;;;;;;;;10377108;28;20319;-73
2021/03/05 09:02:49;;;;;;;8.43;1.73;;;;;;;;;;10379579;28;20603;-73
2021/03/05 09:07:52;;;;;;;4.73;1.70;;;;;;;;;;10381060;28;20220;-74
2021/03/05 09:12:56;;;;;;;5.23;1.63;;;;;;;;;;10382467;28;20236;-73
2021/03/05 09:17:58;;;;;;;4.23;1.50;;;;;;;;;;10378028;28;20208;-73
2021/03/05 09:23:13;;;;;;;4.77;1.60;;;;;;;;;;10380136;28;20338;-74
2021/03/05 09:28:16;;;;;;;5.13;1.50;;;;;;;;;;10379774;28;20207;-74
2021/03/05 09:33:28;;;;;;;3.47;1.53;;;;;;;;;;10376554;28;20260;-74
2021/03/05 09:38:31;;;;;;;4.53;1.40;;;;;;;;;;10378027;28;20339;-77
2021/03/05 09:43:38;;;;;;;3.13;1.20;;;;;;;;;;10376280;28;20216;-76
2021/03/05 09:48:42;;;;;;;5.03;1.40;;;;;;;;;;10372889;28;20222;-76
2021/03/05 09:53:52;;;;;;;5.70;1.80;;;;;;;;;;10378182;28;20240;-78
2021/03/05 09:59:13;;;;;;;2.03;1.20;;;;;;;;;;10379976;28;20586;-80
2021/03/05 10:04:22;;;;;;;2.37;1.13;;;;;;;;;;10375397;28;20235;-78
2021/03/05 10:09:25;;;;;;;2.63;1.23;;;;;;;;;;10377336;28;20215;-80
2021/03/05 10:14:42;;;;;;;2.10;1.37;;;;;;;;;;10378478;28;20250;-77
2021/03/05 10:19:44;;;;;;;1.50;1.03;;;;;;;;;;10368694;28;20297;-78
2021/03/05 10:24:46;;;;;;;28.20;2.17;;;;;;;;;;10369311;28;20761;-79
2021/03/05 10:29:50;;;;;;;7.77;2.07;;;;;;;;;;10369806;28;20220;-80
2021/03/05 10:40:45;;;;;;;6.13;1.10;;;;;;;;;;10367541;28;20222;-78
2021/03/05 10:51:46;;;;;;;1.23;0.97;;;;;;;;;;10370478;28;20208;-78
2021/03/05 10:56:54;;;;;;;3.80;1.20;;;;;;;;;;10379337;28;20251;-78
2021/03/05 11:01:58;;;;;;;2.70;1.13;;;;;;;;;;10375648;28;20240;-76
2021/03/05 11:07:01;;;;;;;3.70;1.33;;;;;;;;;;10375815;28;20212;-76
2021/03/05 11:12:05;;;;;;;2.57;1.23;;;;;;;;;;10358862;28;20213;-76
2021/03/05 11:17:34;;;;;;;3.47;1.57;;;;;;;;;;10373944;28;20212;-76
2021/03/05 11:22:37;;;;;;;2.37;1.27;;;;;;;;;;10381587;28;20209;-77
2021/03/05 11:27:42;;;;;;;3.93;1.40;;;;;;;;;;10376945;28;20219;-76
2021/03/05 11:32:44;;;;;;;1.97;1.20;;;;;;;;;;10379461;28;20242;-76
2021/03/05 11:37:49;;;;;;;3.33;1.23;;;;;;;;;;10365848;28;20221;-79
2021/03/05 11:42:50;;;;;;;4.17;1.40;;;;;;;;;;10381483;28;20290;-75
2021/03/05 11:48:03;;;;;;;9.37;1.70;;;;;;;;;;10385865;28;20242;-76
2021/03/05 11:53:07;;;;;;;3.37;1.87;;;;;;;;;;10381080;28;20270;-77
2021/03/05 11:58:10;;;;;;;3.47;1.17;;;;;;;;;;10380446;28;20208;-78
2021/03/05 12:03:20;;;;;;;2.57;1.40;;;;;;;;;;10379089;28;20691;-77
2021/03/05 12:08:27;;;;;;;5.07;1.33;;;;;;;;;;10381627;28;20290;-77
2021/03/05 12:13:29;;;;;;;2.93;1.70;;;;;;;;;;10381726;28;20232;-76
2021/03/05 12:18:30;;;;;;;2.70;1.20;;;;;;;;;;10378049;28;20213;-77
2021/03/05 12:23:33;;;;;;;5.87;1.43;;;;;;;;;;10378324;28;20315;-76
2021/03/05 12:28:36;;;;;;;3.17;1.37;;;;;;;;;;10380130;28;20208;-78
2021/03/05 12:33:38;;;;;;;5.80;1.20;;;;;;;;;;10376647;28;20740;-76
2021/03/05 12:38:53;;;;;;;2.27;1.23;;;;;;;;;;10375340;28;20735;-78
2021/03/05 12:44:03;;;;;;;2.30;1.30;;;;;;;;;;10377879;28;20335;-78
2021/03/05 12:49:08;;;;;;;3.30;1.37;;;;;;;;;;10373896;28;20252;-76
2021/03/05 12:54:27;;;;;;;3.57;1.50;;;;;;;;;;10364650;28;20659;-79
2021/03/05 12:59:29;;;;;;;4.60;1.47;;;;;;;;;;10378994;28;20362;-78
2021/03/05 13:04:34;;;;;;;2.73;1.40;;;;;;;;;;10373905;28;20716;-75
2021/03/05 13:09:37;;;;;;;2.77;1.40;;;;;;;;;;10372837;28;20220;-76
2021/03/05 13:14:39;;;;;;;4.67;1.50;;;;;;;;;;10373714;28;20239;-76
2021/03/05 13:19:43;;;;;;;3.70;1.30;;;;;;;;;;10381391;28;20601;-76
2021/03/05 13:24:55;;;;;;;2.43;1.33;;;;;;;;;;10378134;28;20593;-77
2021/03/05 13:29:58;;;;;;;4.80;1.50;;;;;;;;;;10378887;28;20212;-77
2021/03/05 13:35:00;;;;;;;3.90;1.33;;;;;;;;;;10373634;28;20228;-77
2021/03/05 13:40:03;;;;;;;12.30;1.70;;;;;;;;;;10372004;28;20212;-77
2021/03/05 13:45:06;;;;;;;7.40;1.50;;;;;;;;;;10374083;28;20672;-77
2021/03/05 13:50:08;;;;;;;2.80;1.13;;;;;;;;;;10379152;28;20756;-77
2021/03/05 13:55:12;;;;;;;2.47;1.10;;;;;;;;;;10374712;28;20232;-77
2021/03/05 14:00:14;;;;;;;6.50;1.53;;;;;;;;;;10378829;28;20204;-77
2021/03/05 14:05:16;;;;;;;5.70;1.60;;;;;;;;;;10362671;28;20628;-76
2021/03/05 14:10:27;;;;;;;6.53;1.70;;;;;;;;;;10367625;28;20698;-77
2021/03/05 14:15:37;;;;;;;4.53;1.40;;;;;;;;;;10365410;28;20281;-75
2021/03/05 14:20:40;;;;;;;3.90;1.47;;;;;;;;;;10373719;28;20270;-75
2021/03/05 14:25:43;;;;;;;4.27;1.70;;;;;;;;;;10360716;28;20224;-75
2021/03/05 14:30:47;;;;;;;3.60;1.70;;;;;;;;;;10365681;28;20368;-75
2021/03/05 14:35:49;;;;;;;3.93;2.00;;;;;;;;;;10320467;28;20859;-75
2021/03/05 14:40:53;;;;;;;6.80;1.80;;;;;;;;;;10326696;28;20229;-76
2021/03/05 14:45:55;;;;;;;10.20;2.00;;;;;;;;;;10327834;28;20217;-75
2021/03/05 14:50:58;;;;;;;7.13;1.80;;;;;;;;;;10334315;28;20621;-75
2021/03/05 14:56:07;;;;;;;4.37;1.60;;;;;;;;;;10331765;28;20225;-75
2021/03/05 15:01:11;;;;;;;5.30;1.60;;;;;;;;;;10327884;28;20208;-76
2021/03/05 15:06:13;;;;;;;7.63;1.97;;;;;;;;;;10321518;28;20220;-75
2021/03/05 15:11:16;;;;;;;8.03;1.90;;;;;;;;;;10322306;28;20796;-75
2021/03/05 15:16:19;;;;;;;4.33;1.80;;;;;;;;;;10315867;28;20601;-75
2021/03/05 15:21:21;;;;;;;4.87;1.70;;;;;;;;;;10327239;28;20297;-75
2021/03/05 15:26:24;;;;;;;2.07;1.30;;;;;;;;;;10321769;28;20217;-76
2021/03/05 15:31:27;;;;;;;9.07;1.80;;;;;;;;;;10321752;28;20722;-76
2021/03/05 15:36:31;;;;;;;5.57;1.60;;;;;;;;;;10334448;28;20619;-76
2021/03/05 15:41:34;;;;;;;4.40;1.50;;;;;;;;;;10336430;28;20348;-76
2021/03/05 15:46:38;;;;;;;3.70;1.50;;;;;;;;;;10329650;28;20214;-76
2021/03/05 15:51:41;;;;;;;6.07;1.50;;;;;;;;;;10334728;28;20298;-75
2021/03/05 15:56:46;;;;;;;1.83;1.27;;;;;;;;;;10331961;28;20292;-76
2021/03/05 16:01:48;;;;;;;5.57;1.53;;;;;;;;;;10336789;28;20245;-76
2021/03/05 16:06:50;;;;;;;5.93;1.43;;;;;;;;;;10336775;28;20220;-76
2021/03/05 16:11:53;;;;;;;4.13;1.30;;;;;;;;;;10333969;28;20213;-76
2021/03/05 16:16:55;;;;;;;4.10;1.40;;;;;;;;;;10317954;28;20636;-76
2021/03/05 16:21:57;;;;;;;4.63;1.47;;;;;;;;;;10332257;28;20227;-77
2021/03/05 16:26:59;;;;;;;4.00;1.63;;;;;;;;;;10330500;28;20254;-77
2021/03/05 16:32:03;;;;;;;3.50;1.50;;;;;;;;;;10332295;28;20209;-77
2021/03/05 16:37:05;;;;;;;5.33;1.67;;;;;;;;;;10334473;28;20233;-77
2021/03/05 16:42:08;;;;;;;4.30;1.43;;;;;;;;;;10333669;28;20219;-77
2021/03/05 16:47:10;;;;;;;4.97;1.50;;;;;;;;;;10322045;28;20221;-76
2021/03/05 16:52:15;;;;;;;4.57;1.50;;;;;;;;;;10331878;28;20641;-76
2021/03/05 16:57:17;;;;;;;6.53;1.90;;;;;;;;;;10329571;28;20237;-77
2021/03/05 17:02:36;;;;;;;3.83;1.50;;;;;;;;;;10342846;28;20458;-75
2021/03/05 17:07:39;;;;;;;6.30;1.67;;;;;;;;;;10332676;28;20667;-76
2021/03/05 17:12:46;;;;;;;5.83;1.60;;;;;;;;;;10326201;28;20580;-74
2021/03/05 17:17:49;;;;;;;5.20;1.70;;;;;;;;;;10323898;28;20425;-74
2021/03/05 17:22:51;;;;;;;5.63;2.00;;;;;;;;;;10320147;28;20240;-74
2021/03/05 17:27:56;;;;;;;3.77;1.67;;;;;;;;;;10318633;28;20306;-75
2021/03/05 17:33:00;;;;;;;4.97;1.90;;;;;;;;;;10314242;28;20835;-75
2021/03/05 17:38:04;;;;;;;3.87;1.80;;;;;;;;;;10325015;28;20259;-75
2021/03/05 17:43:10;;;;;;;9.47;2.30;;;;;;;;;;10327073;28;20209;-76
2021/03/05 17:48:12;;;;;;;6.53;2.13;;;;;;;;;;10324094;28;20213;-76
2021/03/05 17:53:16;;;;;;;5.83;2.50;;;;;;;;;;10321914;28;20236;-75
2021/03/05 17:58:21;;;;;;;9.43;3.00;;;;;;;;;;10324330;28;20217;-75
2021/03/05 18:03:24;;;;;;;13.57;3.40;;;;;;;;;;10322561;28;20332;-75
2021/03/05 18:08:44;;;;;;;7.63;3.40;;;;;;;;;;10324059;28;20227;-75
2021/03/05 18:14:04;;;;;;;5.93;2.43;;;;;;;;;;10322590;28;20243;-75
2021/03/05 18:19:17;;;;;;;7.17;3.17;;;;;;;;;;10321724;28;20208;-73
2021/03/05 18:24:35;;;;;;;;;;;;;;;;;;;;;
2021/03/05 18:29:45;;;;;;;11.70;4.40;;;;;;;;;;10315920;28;20222;-75
2021/03/05 18:34:58;;;;;;;16.40;6.23;;;;;;;;;;10327507;28;20229;-75
2021/03/05 18:40:00;;;;;;;14.63;5.47;;;;;;;;;;10321515;28;20271;-75
2021/03/05 18:45:03;;;;;;;13.80;4.43;;;;;;;;;;10322473;28;20217;-75
2021/03/05 18:50:06;;;;;;;14.33;3.63;;;;;;;;;;10329729;28;20837;-75
2021/03/05 18:55:11;;;;;;;8.37;3.07;;;;;;;;;;10325450;28;20260;-75
2021/03/05 19:00:14;;;;;;;10.50;2.90;;;;;;;;;;10324062;28;20587;-75
2021/03/05 19:05:35;;;;;;;13.60;3.10;;;;;;;;;;10316782;28;21071;-76
2021/03/05 19:10:38;;;;;;;7.27;2.70;;;;;;;;;;10329377;28;20212;-75
2021/03/05 19:15:45;;;;;;;9.23;2.97;;;;;;;;;;10330683;28;20587;-75
2021/03/05 19:20:51;;;;;;;8.47;2.83;;;;;;;;;;10330852;28;20538;-75
2021/03/05 19:25:58;;;;;;;9.87;3.47;;;;;;;;;;10334117;28;20299;-75
2021/03/05 19:31:00;;;;;;;7.07;3.00;;;;;;;;;;10342138;28;20232;-75
2021/03/05 19:36:09;;;;;;;10.43;3.23;;;;;;;;;;10332940;28;20244;-75
2021/03/05 19:41:13;;;;;;;11.53;3.60;;;;;;;;;;10333357;28;20662;-75
2021/03/05 19:46:16;;;;;;;10.57;3.90;;;;;;;;;;10342202;28;20228;-75
2021/03/05 19:51:22;;;;;;;12.33;4.17;;;;;;;;;;10331011;28;20221;-78
2021/03/05 19:56:24;;;;;;;17.30;5.23;;;;;;;;;;10339986;28;20355;-76
2021/03/05 20:01:36;;;;;;;9.30;4.37;;;;;;;;;;10332485;28;20315;-76
2021/03/05 20:07:04;;;;;;;12.97;5.40;;;;;;;;;;10325767;28;22002;-77
2021/03/05 20:12:07;;;;;;;23.23;11.60;;;;;;;;;;10328607;28;20267;-78
2021/03/05 20:17:22;;;;;;;13.83;5.40;;;;;;;;;;10324717;28;20232;-76
2021/03/05 20:22:29;;;;;;;8.07;4.10;;;;;;;;;;10324433;28;20213;-78
2021/03/05 20:27:33;;;;;;;8.70;3.50;;;;;;;;;;10335116;28;20213;-78
2021/03/05 20:32:55;;;;;;;10.90;3.80;;;;;;;;;;10330893;28;20791;-78
2021/03/05 20:38:01;;;;;;;12.53;3.63;;;;;;;;;;10328979;28;20724;-76
2021/03/05 20:43:08;;;;;;;9.97;4.00;;;;;;;;;;10335292;28;20299;-76
2021/03/05 20:48:17;;;;;;;10.37;3.93;;;;;;;;;;10340438;28;20212;-79
2021/03/05 20:53:49;;;;;;;21.37;7.30;;;;;;;;;;10343334;28;20759;-77
2021/03/05 20:58:59;;;;;;;24.73;9.47;;;;;;;;;;10338618;28;20212;-77
2021/03/05 21:04:07;;;;;;;15.37;6.50;;;;;;;;;;10338799;28;20225;-77
2021/03/05 21:09:13;;;;;;;21.53;8.23;;;;;;;;;;10333126;28;20209;-77
2021/03/05 21:14:15;;;;;;;24.90;8.80;;;;;;;;;;10334772;28;20775;-77
2021/03/05 21:19:18;;;;;;;15.40;7.20;;;;;;;;;;10339822;28;20220;-77
2021/03/05 21:24:20;;;;;;;17.80;6.93;;;;;;;;;;10335470;28;20279;-77
2021/03/05 21:29:23;;;;;;;16.27;6.90;;;;;;;;;;10339871;28;20289;-77
2021/03/05 21:34:25;;;;;;;12.40;5.90;;;;;;;;;;10336129;28;20240;-76
2021/03/05 21:39:28;;;;;;;13.47;5.13;;;;;;;;;;10335830;28;20216;-78
2021/03/05 21:44:30;;;;;;;13.87;5.30;;;;;;;;;;10335517;28;20761;-78
2021/03/05 21:49:33;;;;;;;11.47;4.97;;;;;;;;;;10333716;28;20372;-78
2021/03/05 21:54:37;;;;;;;11.53;4.97;;;;;;;;;;10335649;28;20323;-77
2021/03/05 21:59:47;;;;;;;9.83;4.87;;;;;;;;;;10333688;28;20209;-77
2021/03/05 22:05:06;;;;;;;9.63;5.03;;;;;;;;;;10332303;28;20243;-77
2021/03/05 22:10:14;;;;;;;11.93;5.60;;;;;;;;;;10333298;28;20216;-77
2021/03/05 22:15:17;;;;;;;12.87;5.07;;;;;;;;;;10334869;28;20236;-77
2021/03/05 22:20:18;;;;;;;10.90;5.00;;;;;;;;;;10337662;28;20236;-76
2021/03/05 22:25:22;;;;;;;11.00;5.37;;;;;;;;;;10342462;28;20209;-76
2021/03/05 22:30:30;;;;;;;12.80;5.47;;;;;;;;;;10347698;28;20795;-77
2021/03/05 22:35:37;;;;;;;9.10;4.97;;;;;;;;;;10342534;28;20250;-77
2021/03/05 22:40:42;;;;;;;7.93;4.43;;;;;;;;;;10338831;28;20229;-79
2021/03/05 22:45:57;;;;;;;11.40;5.37;;;;;;;;;;10335559;28;20681;-76
2021/03/05 22:50:59;;;;;;;14.20;5.17;;;;;;;;;;10333401;28;20216;-76
2021/03/05 22:56:04;;;;;;;9.93;5.07;;;;;;;;;;10333494;28;20608;-77
2021/03/05 23:01:06;;;;;;;9.73;5.17;;;;;;;;;;10331530;28;20303;-76
2021/03/05 23:06:09;;;;;;;11.60;5.23;;;;;;;;;;10333180;28;20697;-76
2021/03/05 23:11:13;;;;;;;12.47;5.47;;;;;;;;;;10330762;28;20323;-76
2021/03/05 23:16:17;;;;;;;12.37;5.50;;;;;;;;;;10334271;28;20244;-76
2021/03/05 23:21:22;;;;;;;13.53;5.57;;;;;;;;;;10334792;28;20220;-76
2021/03/05 23:26:24;;;;;;;13.63;5.80;;;;;;;;;;10336027;28;20209;-76
2021/03/05 23:31:27;;;;;;;11.70;5.40;;;;;;;;;;10332044;28;20217;-76
2021/03/05 23:36:30;;;;;;;15.07;6.23;;;;;;;;;;10333330;28;20252;-76
2021/03/05 23:41:34;;;;;;;14.73;6.03;;;;;;;;;;10328892;28;20213;-76
2021/03/05 23:46:40;;;;;;;11.80;5.77;;;;;;;;;;10332516;28;20248;-76
2021/03/05 23:51:43;;;;;;;14.80;5.33;;;;;;;;;;10333825;28;20227;-76
2021/03/05 23:56:54;;;;;;;12.43;5.43;;;;;;;;;;10335196;28;20314;-77
